Terminal Aerodrome Forecast
Issued by NWS

Home | Current Version | Previous Version | Text Only | Print | Product List | Glossary On
Versions: 1 2 3 4 5 6 7 8 9 10 11 12 13
000
FTUS46 KPDT 251720
TAFRDM
TAF
KRDM 251720Z 2518/2618 VRB05KT P6SM SKC
     FM252100 34010G18KT P6SM FEW250
     FM260200 32010KT P6SM SCT130 BKN150
     FM260600 31007KT P6SM SCT150 BKN200
     FM261100 18003KT P6SM SCT130 BKN150=

USA.gov is the U.S. government's official web portal to all federal, state and local government web resources and services.